Terminal Aerodrome Forecast
Issued by NWS

Home | Current Version | Previous Version | Graphics & Text | Print | Product List | Glossary On
Versions: 1 2 3 4 5 6 7 8 9 10 11 12 13 14 15 16 17 18 19
000
FTUS43 KICT 220637 AAA
TAFSLN
TAF AMD
KSLN 220637Z 2207/2306 18006KT 1/4SM FG OVC002
      TEMPO 2207/2211 4SM BR BKN006
     FM221500 19014KT P6SM BKN020
     FM230200 19010KT P6SM BKN010=

USA.gov is the U.S. government's official web portal to all federal, state and local government web resources and services.